Time;durP1;ratioP1;P1;durP2;ratioP2;P2;SDS_P1;SDS_P2;PMS_P1;PMS_P2;Temp;Humidity;BMP_temperature;BMP_pressure;BME280_temperature;BME280_humidity;BME280_pressure;Samples;Min_cycle;Max_cycle;Signal;HPM_P1;HPM_P2
2023/06/25 00:00:09;;;;;;;;;;;25.60;40.90;;;;;;1563088;75;850;-60
2023/06/25 00:02:11;;;;;;;;;;;25.70;40.80;;;;;;1533878;76;696;-59
2023/06/25 00:04:13;;;;;;;;;;;25.70;40.20;;;;;;1531432;76;1572;-60
2023/06/25 00:06:15;;;;;;;;;;;25.70;39.80;;;;;;1561409;75;621;-60
2023/06/25 00:08:17;;;;;;;;;;;25.80;39.60;;;;;;1551770;75;1146;-60
2023/06/25 00:10:19;;;;;;;;;;;25.80;39.50;;;;;;1562613;75;733;-60
2023/06/25 00:12:21;;;;;;;;;;;25.80;39.50;;;;;;1531230;76;953;-60
2023/06/25 00:14:23;;;;;;;;;;;25.80;39.30;;;;;;1541480;76;721;-60
2023/06/25 00:16:25;;;;;;;;;;;25.80;39.30;;;;;;1526155;76;1919;-60
2023/06/25 00:18:27;;;;;;;;;;;25.80;39.50;;;;;;1548665;76;1206;-60
2023/06/25 00:20:29;;;;;;;;;;;25.80;39.70;;;;;;1548543;76;704;-60
2023/06/25 00:22:30;;;;;;;;;;;25.80;39.60;;;;;;1545566;76;685;-60
2023/06/25 00:24:32;;;;;;;;;;;25.80;39.50;;;;;;1550830;76;760;-60
2023/06/25 00:26:34;;;;;;;;;;;25.80;39.50;;;;;;1551165;76;737;-60
2023/06/25 00:28:37;;;;;;;;;;;25.80;39.40;;;;;;1544266;76;1137;-60
2023/06/25 00:30:39;;;;;;;;;;;25.80;39.80;;;;;;1556512;76;809;-60
2023/06/25 00:32:41;;;;;;;;;;;25.90;39.70;;;;;;1543921;76;1398;-60
2023/06/25 00:34:43;;;;;;;;;;;25.90;39.70;;;;;;1551098;76;799;-60
2023/06/25 00:36:45;;;;;;;;;;;25.90;39.50;;;;;;1544933;76;1936;-60
2023/06/25 00:38:47;;;;;;;;;;;25.90;39.40;;;;;;1541424;76;1141;-61
2023/06/25 00:40:50;;;;;;;;;;;25.90;39.70;;;;;;1551549;76;761;-60
2023/06/25 00:42:56;;;;;;;;;;;25.80;40.60;;;;;;1544962;76;729;-59
2023/06/25 00:44:56;;;;;;;;;;;25.70;41.00;;;;;;1550571;76;1170;-60
2023/06/25 00:46:59;;;;;;;;;;;25.70;41.10;;;;;;1546941;76;1550;-60
2023/06/25 00:49:08;;;;;;;;;;;25.70;41.20;;;;;;1549580;76;1172;-60
2023/06/25 00:51:11;;;;;;;;;;;25.70;40.90;;;;;;1542821;76;1221;-60
2023/06/25 00:53:11;;;;;;;;;;;25.70;40.90;;;;;;1550041;76;1903;-60
2023/06/25 00:55:13;;;;;;;;;;;25.70;40.80;;;;;;1548389;76;742;-60
2023/06/25 00:57:15;;;;;;;;;;;25.80;40.70;;;;;;1545814;76;1967;-60
2023/06/25 00:59:17;;;;;;;;;;;25.80;40.70;;;;;;1549486;76;1142;-59
2023/06/25 01:01:20;;;;;;;;;;;25.80;40.50;;;;;;1547811;76;1538;-60
2023/06/25 01:03:26;;;;;;;;;;;25.80;40.30;;;;;;1543187;76;721;-60
2023/06/25 01:05:39;;;;;;;;;;;25.80;40.60;;;;;;1552459;76;1830;-60
2023/06/25 01:07:43;;;;;;;;;;;25.70;40.60;;;;;;1555195;76;1641;-60
2023/06/25 01:09:48;;;;;;;;;;;25.80;40.40;;;;;;1552949;76;629;-60
2023/06/25 01:12:02;;;;;;;;;;;25.70;40.30;;;;;;1555782;76;760;-60
2023/06/25 01:14:05;;;;;;;;;;;25.80;40.40;;;;;;1552193;76;1300;-59
2023/06/25 01:16:07;;;;;;;;;;;25.80;40.00;;;;;;1545713;76;745;-60
2023/06/25 01:18:09;;;;;;;;;;;25.80;40.00;;;;;;1552988;76;1925;-60
2023/06/25 01:20:11;;;;;;;;;;;25.90;39.80;;;;;;1544822;76;653;-61
2023/06/25 01:22:15;;;;;;;;;;;25.80;40.00;;;;;;1541643;76;736;-60
2023/06/25 01:24:23;;;;;;;;;;;25.90;40.50;;;;;;1534623;76;634;-61
2023/06/25 01:26:34;;;;;;;;;;;25.70;40.20;;;;;;1549448;75;753;-61
2023/06/25 01:28:29;;;;;;;;;;;25.80;39.80;;;;;;1542458;71;221599;-77
2023/06/25 01:30:35;;;;;;;;;;;25.80;39.90;;;;;;1533340;76;823;-75
2023/06/25 01:32:34;;;;;;;;;;;25.80;39.80;;;;;;1545536;76;1831;-75
2023/06/25 01:34:36;;;;;;;;;;;25.90;39.80;;;;;;1604598;73;739;-74
2023/06/25 01:36:41;;;;;;;;;;;25.80;39.80;;;;;;1596610;74;637;-78
2023/06/25 01:38:43;;;;;;;;;;;25.90;40.00;;;;;;1585907;74;1926;-74
2023/06/25 01:40:45;;;;;;;;;;;25.80;39.80;;;;;;1597909;74;681;-73
2023/06/25 01:42:46;;;;;;;;;;;25.80;39.70;;;;;;1590174;74;1567;-73
2023/06/25 01:44:48;;;;;;;;;;;25.80;39.60;;;;;;1599502;74;675;-74
2023/06/25 01:46:50;;;;;;;;;;;25.80;39.50;;;;;;1588562;74;817;-75
2023/06/25 01:48:52;;;;;;;;;;;25.80;39.60;;;;;;1595855;74;787;-73
2023/06/25 01:50:55;;;;;;;;;;;25.80;39.90;;;;;;1589434;74;722;-75
2023/06/25 01:52:57;;;;;;;;;;;25.80;40.00;;;;;;1582691;74;648;-75
2023/06/25 01:54:58;;;;;;;;;;;25.70;39.70;;;;;;1586325;74;751;-76
2023/06/25 01:57:00;;;;;;;;;;;25.80;39.70;;;;;;1584395;74;1948;-76
2023/06/25 01:59:02;;;;;;;;;;;25.80;39.80;;;;;;1583781;74;732;-76
2023/06/25 02:01:04;;;;;;;;;;;25.90;39.70;;;;;;1586956;74;676;-75
2023/06/25 02:03:06;;;;;;;;;;;25.80;39.90;;;;;;1586240;74;658;-73
2023/06/25 02:05:08;;;;;;;;;;;25.80;39.80;;;;;;1592830;74;658;-73
2023/06/25 02:07:10;;;;;;;;;;;25.80;39.60;;;;;;1587544;74;1094;-72
2023/06/25 02:09:14;;;;;;;;;;;25.80;39.50;;;;;;1595484;74;809;-74
2023/06/25 02:11:15;;;;;;;;;;;25.80;39.40;;;;;;1594449;74;1657;-73
2023/06/25 02:13:17;;;;;;;;;;;25.70;39.40;;;;;;1590903;74;931;-73
2023/06/25 02:15:19;;;;;;;;;;;25.80;39.50;;;;;;1596679;74;725;-72
2023/06/25 02:17:21;;;;;;;;;;;25.70;39.40;;;;;;1595514;74;1949;-75
2023/06/25 02:19:23;;;;;;;;;;;25.80;39.30;;;;;;1588324;74;644;-74
2023/06/25 02:21:25;;;;;;;;;;;25.80;39.30;;;;;;1589096;73;672;-74
2023/06/25 02:23:27;;;;;;;;;;;25.80;39.30;;;;;;1590740;73;662;-73
2023/06/25 02:25:28;;;;;;;;;;;25.80;39.20;;;;;;1596799;74;1331;-75
2023/06/25 02:27:30;;;;;;;;;;;25.70;39.20;;;;;;1593141;74;1140;-73
2023/06/25 02:29:32;;;;;;;;;;;25.70;39.10;;;;;;1582511;73;743;-73
2023/06/25 02:31:34;;;;;;;;;;;25.80;39.20;;;;;;1580568;74;696;-74
2023/06/25 02:33:36;;;;;;;;;;;25.80;39.20;;;;;;1587190;73;682;-77
2023/06/25 02:35:38;;;;;;;;;;;25.80;39.00;;;;;;1592644;74;591;-74
2023/06/25 02:37:40;;;;;;;;;;;25.90;38.90;;;;;;1584505;74;1938;-72
2023/06/25 02:39:41;;;;;;;;;;;25.80;38.90;;;;;;1585250;73;1664;-73
2023/06/25 02:41:43;;;;;;;;;;;25.80;38.90;;;;;;1596665;74;662;-73
2023/06/25 02:43:45;;;;;;;;;;;25.80;39.00;;;;;;1593228;74;687;-74
2023/06/25 02:45:47;;;;;;;;;;;25.70;39.00;;;;;;1584390;74;704;-73
2023/06/25 02:47:49;;;;;;;;;;;25.70;38.90;;;;;;1594982;74;1149;-75
2023/06/25 02:49:51;;;;;;;;;;;25.80;39.00;;;;;;1589080;74;689;-76
2023/06/25 02:51:53;;;;;;;;;;;25.80;39.10;;;;;;1592811;74;664;-75
2023/06/25 02:53:55;;;;;;;;;;;25.80;39.20;;;;;;1588038;73;1684;-72
2023/06/25 02:55:56;;;;;;;;;;;25.80;39.10;;;;;;1600206;74;712;-73
2023/06/25 02:57:58;;;;;;;;;;;25.80;38.90;;;;;;1591653;74;1940;-76
2023/06/25 03:00:00;;;;;;;;;;;25.80;38.90;;;;;;1572920;74;666;-75
2023/06/25 03:02:02;;;;;;;;;;;25.80;39.00;;;;;;1543624;76;732;-74
2023/06/25 03:04:04;;;;;;;;;;;25.80;39.10;;;;;;1513063;78;771;-76
2023/06/25 03:06:06;;;;;;;;;;;25.80;38.80;;;;;;1525898;76;1558;-74
2023/06/25 03:08:08;;;;;;;;;;;25.80;38.80;;;;;;1533741;76;1150;-74
2023/06/25 03:10:10;;;;;;;;;;;25.80;38.80;;;;;;1526952;75;742;-75
2023/06/25 03:12:11;;;;;;;;;;;25.80;38.80;;;;;;1544400;76;767;-72
2023/06/25 03:14:13;;;;;;;;;;;25.70;38.90;;;;;;1540204;77;755;-77
2023/06/25 03:16:15;;;;;;;;;;;25.80;39.20;;;;;;1521790;77;809;-78
2023/06/25 03:18:17;;;;;;;;;;;25.70;39.10;;;;;;1525613;76;1948;-76
2023/06/25 03:20:19;;;;;;;;;;;25.70;39.00;;;;;;1516940;77;1463;-77
2023/06/25 03:22:21;;;;;;;;;;;25.70;39.20;;;;;;1534170;76;679;-77
2023/06/25 03:24:23;;;;;;;;;;;25.70;39.20;;;;;;1523179;76;685;-73
2023/06/25 03:26:24;;;;;;;;;;;25.70;39.20;;;;;;1518781;77;682;-74
2023/06/25 03:28:26;;;;;;;;;;;25.80;39.20;;;;;;1545963;76;1092;-76
2023/06/25 03:30:28;;;;;;;;;;;25.70;39.10;;;;;;1541719;76;690;-76
2023/06/25 03:32:30;;;;;;;;;;;25.70;38.80;;;;;;1549393;76;686;-78
2023/06/25 03:34:32;;;;;;;;;;;25.70;38.70;;;;;;1546951;76;1559;-74
2023/06/25 03:36:34;;;;;;;;;;;25.70;38.60;;;;;;1540956;76;724;-74
2023/06/25 03:38:36;;;;;;;;;;;25.70;38.60;;;;;;1541321;76;1971;-75
2023/06/25 03:40:39;;;;;;;;;;;25.80;38.80;;;;;;1548938;76;666;-75
2023/06/25 03:42:40;;;;;;;;;;;25.70;39.00;;;;;;1544253;76;639;-76
2023/06/25 03:44:44;;;;;;;;;;;25.70;39.10;;;;;;1546873;76;774;-76
2023/06/25 03:46:46;;;;;;;;;;;25.60;39.20;;;;;;1535934;76;1963;-76
2023/06/25 03:48:48;;;;;;;;;;;25.70;39.00;;;;;;1547073;76;1514;-75
2023/06/25 03:50:50;;;;;;;;;;;25.70;39.00;;;;;;1529222;76;667;-75
2023/06/25 03:52:51;;;;;;;;;;;25.60;38.90;;;;;;1553739;76;789;-77
2023/06/25 03:54:53;;;;;;;;;;;25.70;38.80;;;;;;1550399;76;729;-73
2023/06/25 03:56:55;;;;;;;;;;;25.60;38.70;;;;;;1533448;76;1108;-72
2023/06/25 03:58:57;;;;;;;;;;;25.70;38.70;;;;;;1541241;76;1931;-75
2023/06/25 04:00:59;;;;;;;;;;;25.60;38.70;;;;;;1544607;76;735;-76
2023/06/25 04:03:01;;;;;;;;;;;25.60;38.70;;;;;;1550739;76;1531;-75
2023/06/25 04:05:03;;;;;;;;;;;25.60;38.60;;;;;;1544483;76;774;-75
2023/06/25 04:07:05;;;;;;;;;;;25.70;38.60;;;;;;1548378;76;1146;-73
2023/06/25 04:09:07;;;;;;;;;;;25.60;38.60;;;;;;1543594;76;735;-74
2023/06/25 04:11:09;;;;;;;;;;;25.70;38.70;;;;;;1545909;76;702;-74
2023/06/25 04:13:11;;;;;;;;;;;25.60;38.60;;;;;;1549927;76;731;-75
2023/06/25 04:15:13;;;;;;;;;;;25.60;38.60;;;;;;1537674;76;750;-76
2023/06/25 04:17:15;;;;;;;;;;;25.70;38.50;;;;;;1545035;76;1528;-76
2023/06/25 04:19:17;;;;;;;;;;;25.70;38.60;;;;;;1541442;76;1942;-74
2023/06/25 04:21:19;;;;;;;;;;;25.70;38.90;;;;;;1544115;76;692;-73
2023/06/25 04:23:21;;;;;;;;;;;25.70;38.70;;;;;;1540784;76;727;-73
2023/06/25 04:25:23;;;;;;;;;;;25.70;38.70;;;;;;1541318;76;677;-76
2023/06/25 04:27:24;;;;;;;;;;;25.70;38.60;;;;;;1551244;76;1123;-75
2023/06/25 04:29:26;;;;;;;;;;;25.70;38.70;;;;;;1546715;76;817;-75
2023/06/25 04:31:28;;;;;;;;;;;25.70;38.60;;;;;;1543186;76;1367;-73
2023/06/25 04:33:30;;;;;;;;;;;25.70;38.80;;;;;;1536783;76;700;-76
2023/06/25 04:35:32;;;;;;;;;;;25.70;38.80;;;;;;1553492;76;664;-74
2023/06/25 04:37:34;;;;;;;;;;;25.70;38.90;;;;;;1541614;76;1186;-74
2023/06/25 04:39:36;;;;;;;;;;;25.60;38.90;;;;;;1542997;76;1931;-78
2023/06/25 04:41:37;;;;;;;;;;;25.70;38.90;;;;;;1538020;76;742;-76
2023/06/25 04:43:39;;;;;;;;;;;25.60;38.80;;;;;;1543083;76;689;-77
2023/06/25 04:45:41;;;;;;;;;;;25.60;38.80;;;;;;1535615;76;1648;-77
2023/06/25 04:47:43;;;;;;;;;;;25.70;38.70;;;;;;1542574;76;1117;-75
2023/06/25 04:49:45;;;;;;;;;;;25.70;39.00;;;;;;1554325;76;720;-75
2023/06/25 04:51:47;;;;;;;;;;;25.60;38.90;;;;;;1543777;76;701;-74
2023/06/25 04:53:49;;;;;;;;;;;25.70;38.80;;;;;;1551030;76;700;-75
2023/06/25 04:55:51;;;;;;;;;;;25.70;38.90;;;;;;1550971;76;929;-75
2023/06/25 04:57:53;;;;;;;;;;;25.70;38.80;;;;;;1538968;76;1147;-74
2023/06/25 04:59:55;;;;;;;;;;;25.70;38.80;;;;;;1550592;76;2011;-74
2023/06/25 05:01:56;;;;;;;;;;;25.70;39.10;;;;;;1541657;76;702;-70
2023/06/25 05:03:58;;;;;;;;;;;25.60;39.10;;;;;;1550341;76;730;-73
2023/06/25 05:06:00;;;;;;;;;;;25.60;39.00;;;;;;1549404;76;670;-73
2023/06/25 05:08:03;;;;;;;;;;;25.70;38.90;;;;;;1548204;76;1125;-72
2023/06/25 05:10:05;;;;;;;;;;;25.70;39.00;;;;;;1553457;75;707;-73
2023/06/25 05:12:07;;;;;;;;;;;25.60;39.10;;;;;;1517591;78;760;-72
2023/06/25 05:14:09;;;;;;;;;;;25.60;39.20;;;;;;1539276;77;1578;-75
2023/06/25 05:16:11;;;;;;;;;;;25.60;39.20;;;;;;1533794;76;681;-75
2023/06/25 05:18:13;;;;;;;;;;;25.60;39.20;;;;;;1536092;76;1951;-73
2023/06/25 05:20:14;;;;;;;;;;;25.70;39.30;;;;;;1541015;76;727;-73
2023/06/25 05:22:16;;;;;;;;;;;25.60;39.40;;;;;;1531173;76;725;-75
2023/06/25 05:24:18;;;;;;;;;;;25.60;39.30;;;;;;1523836;76;545;-72
2023/06/25 05:26:20;;;;;;;;;;;25.60;39.40;;;;;;1537707;76;717;-72
2023/06/25 05:28:22;;;;;;;;;;;25.60;39.60;;;;;;1536201;76;1363;-73
2023/06/25 05:30:24;;;;;;;;;;;25.60;39.70;;;;;;1528751;77;767;-72
2023/06/25 05:32:26;;;;;;;;;;;25.70;39.70;;;;;;1533738;76;757;-77
2023/06/25 05:34:28;;;;;;;;;;;25.70;39.90;;;;;;1533710;76;776;-74
2023/06/25 05:36:29;;;;;;;;;;;25.70;39.80;;;;;;1535430;76;768;-75
2023/06/25 05:38:31;;;;;;;;;;;25.60;39.90;;;;;;1530672;76;1940;-74
2023/06/25 05:40:33;;;;;;;;;;;25.60;39.90;;;;;;1533188;76;693;-74
2023/06/25 05:42:35;;;;;;;;;;;25.60;40.00;;;;;;1538504;76;1612;-72
2023/06/25 05:44:37;;;;;;;;;;;25.60;39.80;;;;;;1528479;76;797;-73
2023/06/25 05:46:39;;;;;;;;;;;25.70;39.80;;;;;;1530674;76;685;-74
2023/06/25 05:48:41;;;;;;;;;;;25.70;39.80;;;;;;1536081;76;1134;-76
2023/06/25 05:50:43;;;;;;;;;;;25.70;39.90;;;;;;1531489;76;697;-75
2023/06/25 05:52:45;;;;;;;;;;;25.70;40.00;;;;;;1526930;76;647;-75
2023/06/25 05:54:47;;;;;;;;;;;25.70;40.00;;;;;;1539429;76;1474;-72
2023/06/25 05:56:48;;;;;;;;;;;25.70;40.10;;;;;;1538037;76;670;-74
2023/06/25 05:58:50;;;;;;;;;;;25.60;40.00;;;;;;1530712;76;1956;-74
2023/06/25 06:00:52;;;;;;;;;;;25.60;40.00;;;;;;1535095;76;678;-76
2023/06/25 06:02:54;;;;;;;;;;;25.60;40.10;;;;;;1532454;76;793;-77
2023/06/25 06:04:56;;;;;;;;;;;25.50;39.80;;;;;;1533954;77;681;-74
2023/06/25 06:06:58;;;;;;;;;;;25.50;40.20;;;;;;1530676;76;1155;-77
2023/06/25 06:09:00;;;;;;;;;;;25.50;40.10;;;;;;1531777;76;1583;-76
2023/06/25 06:11:02;;;;;;;;;;;25.50;40.20;;;;;;1538186;76;958;-76
2023/06/25 06:13:03;;;;;;;;;;;25.50;40.10;;;;;;1536131;76;680;-75
2023/06/25 06:15:05;;;;;;;;;;;25.50;39.70;;;;;;1532867;76;676;-76
2023/06/25 06:17:08;;;;;;;;;;;25.60;39.70;;;;;;1541508;76;1123;-76
2023/06/25 06:19:10;;;;;;;;;;;25.60;40.10;;;;;;1530541;76;1913;-76
2023/06/25 06:21:12;;;;;;;;;;;25.70;40.00;;;;;;1530351;76;763;-76
2023/06/25 06:23:14;;;;;;;;;;;25.70;39.70;;;;;;1533554;76;1760;-76
2023/06/25 06:25:16;;;;;;;;;;;25.70;39.60;;;;;;1535662;76;715;-77
2023/06/25 06:27:17;;;;;;;;;;;25.60;40.00;;;;;;1530378;76;1103;-73
2023/06/25 06:29:19;;;;;;;;;;;25.70;40.00;;;;;;1523388;76;597;-77
2023/06/25 06:31:21;;;;;;;;;;;25.60;40.00;;;;;;1535858;76;871;-72
2023/06/25 06:33:23;;;;;;;;;;;25.70;40.10;;;;;;1540388;76;755;-76
2023/06/25 06:35:25;;;;;;;;;;;25.70;40.30;;;;;;1534881;76;793;-73
2023/06/25 06:37:27;;;;;;;;;;;25.70;40.40;;;;;;1533071;76;1388;-77
2023/06/25 06:39:29;;;;;;;;;;;25.70;40.60;;;;;;1541341;76;1944;-75
2023/06/25 06:41:31;;;;;;;;;;;25.70;40.80;;;;;;1541637;76;721;-76
2023/06/25 06:43:33;;;;;;;;;;;25.70;40.90;;;;;;1533910;76;621;-76
2023/06/25 06:45:34;;;;;;;;;;;25.70;40.90;;;;;;1537304;76;709;-75
2023/06/25 06:47:37;;;;;;;;;;;25.70;40.80;;;;;;1543132;76;1168;-74
2023/06/25 06:49:39;;;;;;;;;;;25.70;41.00;;;;;;1537030;76;718;-76
2023/06/25 06:51:41;;;;;;;;;;;25.80;40.90;;;;;;1537217;76;1544;-75
2023/06/25 06:53:42;;;;;;;;;;;25.80;41.00;;;;;;1537530;76;683;-76
2023/06/25 06:55:44;;;;;;;;;;;25.80;41.00;;;;;;1533749;76;673;-74
2023/06/25 06:57:46;;;;;;;;;;;25.90;41.10;;;;;;1532791;76;1191;-74
2023/06/25 06:59:48;;;;;;;;;;;25.90;41.00;;;;;;1538808;76;1916;-76
2023/06/25 07:01:50;;;;;;;;;;;25.80;41.10;;;;;;1538774;75;691;-76
2023/06/25 07:03:52;;;;;;;;;;;25.90;41.10;;;;;;1534015;76;704;-74
2023/06/25 07:05:54;;;;;;;;;;;25.90;41.20;;;;;;1528605;76;1555;-76
2023/06/25 07:07:56;;;;;;;;;;;25.80;41.50;;;;;;1527939;76;1160;-76
2023/06/25 07:09:58;;;;;;;;;;;25.80;41.80;;;;;;1527229;76;756;-73
2023/06/25 07:11:59;;;;;;;;;;;25.70;42.10;;;;;;1539057;76;680;-73
2023/06/25 07:14:01;;;;;;;;;;;25.70;41.10;;;;;;1541272;76;795;-73
2023/06/25 07:16:03;;;;;;;;;;;25.70;40.30;;;;;;1536862;76;753;-73
2023/06/25 07:18:06;;;;;;;;;;;25.70;40.00;;;;;;1534483;76;1108;-73
2023/06/25 07:20:08;;;;;;;;;;;25.70;39.80;;;;;;1538438;76;1917;-74
2023/06/25 07:22:10;;;;;;;;;;;25.70;39.70;;;;;;1536574;76;714;-75
2023/06/25 07:24:12;;;;;;;;;;;25.70;39.70;;;;;;1536336;77;697;-73
2023/06/25 07:26:14;;;;;;;;;;;25.70;39.70;;;;;;1529215;76;673;-72
2023/06/25 07:28:16;;;;;;;;;;;25.70;39.80;;;;;;1528872;71;226994;-69
2023/06/25 07:30:18;;;;;;;;;;;25.60;39.50;;;;;;1491167;78;672;-70
2023/06/25 07:32:20;;;;;;;;;;;25.60;39.40;;;;;;1495655;78;702;-72
2023/06/25 07:34:22;;;;;;;;;;;25.60;39.40;;;;;;1485068;78;1538;-68
2023/06/25 07:36:24;;;;;;;;;;;25.50;39.40;;;;;;1488150;78;662;-71
2023/06/25 07:38:26;;;;;;;;;;;25.50;39.30;;;;;;1484525;78;1175;-70
2023/06/25 07:40:28;;;;;;;;;;;25.50;39.20;;;;;;1488596;78;1936;-67
2023/06/25 07:42:30;;;;;;;;;;;25.50;39.20;;;;;;1490174;78;635;-70
2023/06/25 07:44:31;;;;;;;;;;;25.50;39.00;;;;;;1486483;78;711;-70
2023/06/25 07:46:33;;;;;;;;;;;25.50;38.90;;;;;;1480393;78;703;-70
2023/06/25 07:48:35;;;;;;;;;;;25.50;38.90;;;;;;1487460;78;1328;-71
2023/06/25 07:50:37;;;;;;;;;;;25.50;38.90;;;;;;1490322;78;757;-70
2023/06/25 07:52:39;;;;;;;;;;;25.60;38.80;;;;;;1481071;78;744;-70
2023/06/25 07:54:41;;;;;;;;;;;25.50;38.90;;;;;;1485783;78;770;-70
2023/06/25 07:56:44;;;;;;;;;;;25.50;38.90;;;;;;1480674;78;643;-70
2023/06/25 07:58:46;;;;;;;;;;;25.50;38.90;;;;;;1485358;78;1153;-70
2023/06/25 08:00:48;;;;;;;;;;;25.50;38.90;;;;;;1487062;78;1924;-69
2023/06/25 08:02:49;;;;;;;;;;;25.50;38.90;;;;;;1486080;78;1576;-71
2023/06/25 08:04:51;;;;;;;;;;;25.50;38.90;;;;;;1479880;78;727;-70
2023/06/25 08:06:53;;;;;;;;;;;25.50;38.80;;;;;;1486668;78;745;-72
2023/06/25 08:08:55;;;;;;;;;;;25.50;38.80;;;;;;1491310;78;1179;-70
2023/06/25 08:10:57;;;;;;;;;;;25.60;38.80;;;;;;1484531;78;742;-70
2023/06/25 08:12:59;;;;;;;;;;;25.50;38.70;;;;;;1481765;78;739;-70
2023/06/25 08:15:01;;;;;;;;;;;25.60;38.60;;;;;;1492263;79;685;-69
2023/06/25 08:17:03;;;;;;;;;;;25.60;38.60;;;;;;1488797;78;1693;-70
2023/06/25 08:19:05;;;;;;;;;;;25.50;38.60;;;;;;1480014;78;1120;-70
2023/06/25 08:21:07;;;;;;;;;;;25.50;38.60;;;;;;1489663;79;1946;-70
2023/06/25 08:23:09;;;;;;;;;;;25.50;38.40;;;;;;1481932;78;745;-68
2023/06/25 08:25:21;;;;;;;;;;;25.40;38.30;;;;;;1480917;78;670;-70
2023/06/25 08:27:25;;;;;;;;;;;25.40;38.00;;;;;;1493632;78;745;-67
2023/06/25 08:29:27;;;;;;;;;;;25.40;37.80;;;;;;1481581;78;1514;-70
2023/06/25 08:31:29;;;;;;;;;;;25.40;37.90;;;;;;1487106;78;743;-69
2023/06/25 08:33:31;;;;;;;;;;;25.50;37.80;;;;;;1487874;78;665;-70
2023/06/25 08:35:33;;;;;;;;;;;25.40;36.80;;;;;;1481928;78;738;-68
2023/06/25 08:37:35;;;;;;;;;;;25.50;35.70;;;;;;1486855;78;1226;-70
2023/06/25 08:39:37;;;;;;;;;;;25.50;35.00;;;;;;1491973;78;1929;-70
2023/06/25 08:41:39;;;;;;;;;;;25.50;34.80;;;;;;1493222;78;1087;-70
2023/06/25 08:43:41;;;;;;;;;;;25.50;35.20;;;;;;1484205;78;1518;-70
2023/06/25 08:45:42;;;;;;;;;;;25.50;34.60;;;;;;1475131;78;1151;-70
2023/06/25 08:47:44;;;;;;;;;;;25.70;34.60;;;;;;1482239;78;1191;-70
2023/06/25 08:49:46;;;;;;;;;;;25.70;34.70;;;;;;1481430;79;1185;-70
2023/06/25 08:51:48;;;;;;;;;;;25.70;34.50;;;;;;1490216;78;1309;-71
2023/06/25 08:53:50;;;;;;;;;;;25.70;34.50;;;;;;1491175;78;1102;-71
2023/06/25 08:55:52;;;;;;;;;;;25.70;34.50;;;;;;1475275;78;1078;-70
2023/06/25 08:57:54;;;;;;;;;;;25.80;34.40;;;;;;1474840;78;1558;-70
2023/06/25 08:59:56;;;;;;;;;;;25.80;33.90;;;;;;1473603;78;1938;-70
2023/06/25 09:01:58;;;;;;;;;;;25.80;33.90;;;;;;1484165;78;1154;-70
2023/06/25 09:03:59;;;;;;;;;;;25.70;33.60;;;;;;1475676;78;1523;-70
2023/06/25 09:06:01;;;;;;;;;;;25.90;33.90;;;;;;1479406;78;1112;-70
2023/06/25 09:08:04;;;;;;;;;;;25.90;34.30;;;;;;1467014;78;1131;-71
2023/06/25 09:10:09;;;;;;;;;;;25.90;34.10;;;;;;1482644;78;1210;-69
2023/06/25 09:12:12;;;;;;;;;;;25.90;33.60;;;;;;1468040;78;1301;-70
2023/06/25 09:14:14;;;;;;;;;;;25.90;32.40;;;;;;1471044;78;1084;-71
2023/06/25 09:16:16;;;;;;;;;;;25.90;32.90;;;;;;1473507;78;1138;-69
2023/06/25 09:18:23;;;;;;;;;;;25.80;32.70;;;;;;1470919;78;1165;-70
2023/06/25 09:20:25;;;;;;;;;;;25.80;32.80;;;;;;1481002;78;1931;-68
2023/06/25 09:22:27;;;;;;;;;;;25.80;32.40;;;;;;1484574;78;1184;-70
2023/06/25 09:24:29;;;;;;;;;;;25.90;32.70;;;;;;1476021;78;1119;-70
2023/06/25 09:26:31;;;;;;;;;;;25.90;32.80;;;;;;1486662;78;1406;-70
2023/06/25 09:28:33;;;;;;;;;;;25.90;33.30;;;;;;1485415;79;1139;-71
2023/06/25 09:30:35;;;;;;;;;;;25.90;33.30;;;;;;1484427;78;1156;-70
2023/06/25 09:32:39;;;;;;;;;;;25.90;32.80;;;;;;1484697;78;1130;-69
2023/06/25 09:34:41;;;;;;;;;;;26.00;33.60;;;;;;1478892;78;1959;-68
2023/06/25 09:36:43;;;;;;;;;;;26.00;33.20;;;;;;1486992;78;1188;-69
2023/06/25 09:38:45;;;;;;;;;;;26.00;33.40;;;;;;1493264;78;1245;-71
2023/06/25 09:40:47;;;;;;;;;;;26.00;33.40;;;;;;1483978;79;1937;-70
2023/06/25 09:42:50;;;;;;;;;;;26.00;33.10;;;;;;1482976;78;1069;-69
2023/06/25 09:44:52;;;;;;;;;;;25.90;32.60;;;;;;1482362;78;1204;-71
2023/06/25 09:46:56;;;;;;;;;;;25.90;33.00;;;;;;1482226;78;1282;-70
2023/06/25 09:48:58;;;;;;;;;;;25.90;33.20;;;;;;1477614;78;1249;-72
2023/06/25 09:51:00;;;;;;;;;;;26.00;33.40;;;;;;1480797;78;1122;-71
2023/06/25 09:53:03;;;;;;;;;;;26.00;33.40;;;;;;1484012;79;1141;-71
2023/06/25 09:55:05;;;;;;;;;;;26.00;33.20;;;;;;1481222;78;1829;-71
2023/06/25 09:57:14;;;;;;;;;;;26.00;32.70;;;;;;1478693;78;1133;-72
2023/06/25 09:59:12;;;;;;;;;;;25.90;32.10;;;;;;1473608;78;1161;-70
2023/06/25 10:01:15;;;;;;;;;;;25.90;32.80;;;;;;1484067;79;1945;-70
2023/06/25 10:03:16;;;;;;;;;;;25.90;31.30;;;;;;1492776;78;1116;-68
2023/06/25 10:05:18;;;;;;;;;;;25.90;31.30;;;;;;1479799;78;1181;-71
2023/06/25 10:07:21;;;;;;;;;;;25.90;31.60;;;;;;1479510;78;1164;-71
2023/06/25 10:09:23;;;;;;;;;;;25.80;31.50;;;;;;1478810;78;1512;-70
2023/06/25 10:11:26;;;;;;;;;;;25.90;31.70;;;;;;1474836;78;1098;-70
2023/06/25 10:13:29;;;;;;;;;;;25.80;31.50;;;;;;1481299;78;1157;-74
2023/06/25 10:15:31;;;;;;;;;;;25.90;32.30;;;;;;1479658;78;1204;-71
2023/06/25 10:17:34;;;;;;;;;;;25.90;33.80;;;;;;1482351;78;1137;-70
2023/06/25 10:19:35;;;;;;;;;;;25.90;33.10;;;;;;1470816;78;1082;-72
2023/06/25 10:21:37;;;;;;;;;;;25.90;33.90;;;;;;1477919;78;1941;-71
2023/06/25 10:23:39;;;;;;;;;;;25.90;32.40;;;;;;1480369;78;1566;-71
2023/06/25 10:25:43;;;;;;;;;;;25.90;32.60;;;;;;1473775;78;1094;-71
2023/06/25 10:27:45;;;;;;;;;;;25.90;32.00;;;;;;1474034;78;1831;-70
2023/06/25 10:29:46;;;;;;;;;;;25.90;31.90;;;;;;1487706;78;1554;-70
2023/06/25 10:31:48;;;;;;;;;;;25.90;32.10;;;;;;1479104;78;1108;-70
2023/06/25 10:33:50;;;;;;;;;;;25.90;31.40;;;;;;1480240;78;1317;-71
2023/06/25 10:35:56;;;;;;;;;;;25.90;31.80;;;;;;1491378;78;1396;-70
2023/06/25 10:37:58;;;;;;;;;;;25.90;33.20;;;;;;1479696;79;1554;-69
2023/06/25 10:40:03;;;;;;;;;;;25.90;32.30;;;;;;1486348;78;1495;-69
2023/06/25 10:42:05;;;;;;;;;;;25.90;32.00;;;;;;1493936;78;2087;-70
2023/06/25 10:44:07;;;;;;;;;;;25.90;31.40;;;;;;1490296;78;1502;-71
2023/06/25 10:46:09;;;;;;;;;;;25.90;31.30;;;;;;1479396;78;1481;-71
2023/06/25 10:48:11;;;;;;;;;;;25.80;31.20;;;;;;1490580;78;1207;-73
2023/06/25 10:50:15;;;;;;;;;;;25.90;31.20;;;;;;1490957;78;1486;-71
2023/06/25 10:52:17;;;;;;;;;;;25.90;30.50;;;;;;1484611;78;1056;-70
2023/06/25 10:54:21;;;;;;;;;;;25.80;31.10;;;;;;1489911;78;1227;-71
2023/06/25 10:56:23;;;;;;;;;;;25.90;30.60;;;;;;1474412;78;1763;-71
2023/06/25 10:58:25;;;;;;;;;;;25.80;31.00;;;;;;1481459;78;1549;-71
2023/06/25 11:00:29;;;;;;;;;;;25.90;31.00;;;;;;1488186;78;1951;-71
2023/06/25 11:02:31;;;;;;;;;;;25.80;31.10;;;;;;1482002;78;1128;-72
2023/06/25 11:04:33;;;;;;;;;;;25.80;31.10;;;;;;1481533;78;1301;-72
2023/06/25 11:06:38;;;;;;;;;;;25.80;31.20;;;;;;1480355;78;1105;-71
2023/06/25 11:08:43;;;;;;;;;;;25.90;31.00;;;;;;1489375;78;1321;-71
2023/06/25 11:10:45;;;;;;;;;;;25.80;30.90;;;;;;1487442;78;1480;-72
2023/06/25 11:12:47;;;;;;;;;;;25.80;30.70;;;;;;1476914;78;1489;-71
2023/06/25 11:14:49;;;;;;;;;;;25.80;30.00;;;;;;1488727;78;1154;-74
2023/06/25 11:16:51;;;;;;;;;;;25.70;30.20;;;;;;1488417;78;1479;-71
2023/06/25 11:18:53;;;;;;;;;;;25.80;30.20;;;;;;1473179;78;1570;-69
2023/06/25 11:20:56;;;;;;;;;;;25.70;30.00;;;;;;1493964;78;1935;-70
2023/06/25 11:23:04;;;;;;;;;;;25.70;29.80;;;;;;1486516;78;1519;-71
2023/06/25 11:25:06;;;;;;;;;;;25.60;29.60;;;;;;1482147;78;1473;-70
2023/06/25 11:27:09;;;;;;;;;;;25.60;29.90;;;;;;1478351;78;1481;-71
2023/06/25 11:29:11;;;;;;;;;;;25.70;29.70;;;;;;1477054;78;1473;-72
2023/06/25 11:31:13;;;;;;;;;;;25.60;29.30;;;;;;1482889;78;1081;-71
2023/06/25 11:33:16;;;;;;;;;;;25.70;29.70;;;;;;1476219;79;1858;-71
2023/06/25 11:35:18;;;;;;;;;;;25.60;29.80;;;;;;1484657;78;1519;-71
2023/06/25 11:37:20;;;;;;;;;;;25.60;29.80;;;;;;1482692;78;1190;-72
2023/06/25 11:39:21;;;;;;;;;;;25.70;29.60;;;;;;1482322;78;1501;-71
2023/06/25 11:41:27;;;;;;;;;;;25.70;29.80;;;;;;1482849;78;1940;-71
2023/06/25 11:43:29;;;;;;;;;;;25.70;30.00;;;;;;1485366;78;1274;-71
2023/06/25 11:45:41;;;;;;;;;;;25.70;30.40;;;;;;1488155;78;1490;-71
2023/06/25 11:47:44;;;;;;;;;;;25.70;30.00;;;;;;1481458;78;1327;-71
2023/06/25 11:49:48;;;;;;;;;;;25.70;30.00;;;;;;1478328;79;1439;-71
2023/06/25 11:51:51;;;;;;;;;;;25.70;30.20;;;;;;1485899;78;1845;-69
2023/06/25 11:53:53;;;;;;;;;;;25.70;30.10;;;;;;1487067;78;2069;-71
2023/06/25 11:55:55;;;;;;;;;;;25.70;30.00;;;;;;1481486;78;1521;-70
2023/06/25 11:57:57;;;;;;;;;;;25.60;29.70;;;;;;1483413;78;1115;-70
2023/06/25 11:59:59;;;;;;;;;;;25.70;29.80;;;;;;1494248;79;1535;-72
2023/06/25 12:02:00;;;;;;;;;;;25.70;29.80;;;;;;1490006;78;1958;-72
2023/06/25 12:04:03;;;;;;;;;;;25.60;29.90;;;;;;1484569;78;1499;-71
2023/06/25 12:06:06;;;;;;;;;;;25.60;29.70;;;;;;1485993;78;1403;-71